Time;durP1;ratioP1;P1;durP2;ratioP2;P2;SDS_P1;SDS_P2;PMS_P1;PMS_P2;Temp;Humidity;BMP_temperature;BMP_pressure;BME280_temperature;BME280_humidity;BME280_pressure;Samples;Min_cycle;Max_cycle;Signal;HPM_P1;HPM_P2
2023/11/06 00:01:50;;;;;;;2.05;1.20;;;8.90;99.90;;;;;;5080462;28;20029;-76
2023/11/06 00:04:16;;;;;;;1.92;1.23;;;8.90;99.90;;;;;;5012307;28;20097;-77
2023/11/06 00:06:41;;;;;;;2.50;1.08;;;8.80;99.90;;;;;;5079850;28;20095;-81
2023/11/06 00:09:07;;;;;;;2.78;0.93;;;8.80;99.90;;;;;;5076746;28;20025;-77
2023/11/06 00:11:33;;;;;;;1.65;1.33;;;8.80;99.90;;;;;;5075535;28;20037;-81
2023/11/06 00:13:59;;;;;;;5.18;2.42;;;8.80;99.90;;;;;;5012300;28;20025;-76
2023/11/06 00:16:25;;;;;;;1.55;1.17;;;8.80;99.90;;;;;;5011907;28;20364;-81
2023/11/06 00:18:51;;;;;;;1.70;1.30;;;8.80;99.90;;;;;;5080098;28;20025;-82
2023/11/06 00:21:17;;;;;;;1.83;1.38;;;8.80;99.90;;;;;;5078663;28;20041;-76
2023/11/06 00:23:44;;;;;;;2.20;1.20;;;8.90;99.90;;;;;;5010390;28;20022;-77
2023/11/06 00:26:13;;;;;;;2.60;1.35;;;9.00;99.90;;;;;;5078820;28;20525;-81
2023/11/06 00:28:40;;;;;;;1.65;1.30;;;9.00;99.90;;;;;;5012096;28;20049;-81
2023/11/06 00:31:06;;;;;;;3.35;1.40;;;9.00;99.90;;;;;;5011849;28;20080;-81
2023/11/06 00:33:32;;;;;;;1.65;1.00;;;9.00;99.90;;;;;;5079561;28;20026;-78
2023/11/06 00:35:57;;;;;;;2.10;1.33;;;9.10;99.90;;;;;;5079499;28;20022;-81
2023/11/06 00:38:23;;;;;;;2.63;1.42;;;9.10;99.90;;;;;;5079218;28;20026;-76
2023/11/06 00:40:50;;;;;;;2.20;1.48;;;9.10;99.90;;;;;;5011466;28;20066;-77
2023/11/06 00:43:15;;;;;;;2.38;1.42;;;9.10;99.90;;;;;;5011853;28;20030;-81
2023/11/06 00:45:41;;;;;;;1.85;1.00;;;9.10;99.90;;;;;;5011488;28;20030;-76
2023/11/06 00:48:07;;;;;;;4.47;2.05;;;9.00;99.90;;;;;;5076333;28;20493;-76
2023/11/06 00:50:33;;;;;;;1.90;1.23;;;9.00;99.90;;;;;;5074639;28;20475;-76
2023/11/06 00:52:58;;;;;;;1.38;1.13;;;8.90;99.90;;;;;;5079510;28;20038;-81
2023/11/06 00:55:26;;;;;;;2.22;1.58;;;8.80;99.90;;;;;;5011658;28;20022;-81
2023/11/06 00:57:52;;;;;;;3.20;1.70;;;8.80;99.90;;;;;;5011548;28;20029;-82
2023/11/06 01:00:21;;;;;;;2.42;1.85;;;8.70;99.90;;;;;;5078971;28;20018;-77
2023/11/06 01:02:47;;;;;;;6.50;2.85;;;8.60;99.90;;;;;;5079211;28;20079;-82
2023/11/06 01:05:12;;;;;;;2.42;2.20;;;8.60;99.90;;;;;;5078972;28;20018;-82
2023/11/06 01:07:38;;;;;;;6.10;3.00;;;8.50;99.90;;;;;;5079235;28;20131;-77
2023/11/06 01:10:05;;;;;;;7.00;3.72;;;8.50;99.90;;;;;;5078366;28;20101;-77
2023/11/06 01:12:30;;;;;;;5.72;3.38;;;8.50;99.90;;;;;;5079095;28;20037;-82
2023/11/06 01:14:57;;;;;;;5.80;3.40;;;8.40;99.90;;;;;;5011170;28;20030;-76
2023/11/06 01:17:25;;;;;;;9.27;3.20;;;8.40;99.90;;;;;;5079013;28;20022;-77
2023/11/06 01:19:51;;;;;;;6.80;3.03;;;8.40;99.90;;;;;;5078661;28;20083;-82
2023/11/06 01:22:17;;;;;;;7.68;2.95;;;8.30;99.90;;;;;;5078880;28;20470;-76
2023/11/06 01:24:43;;;;;;;3.67;2.42;;;8.40;99.90;;;;;;5078421;28;20051;-81
2023/11/06 01:27:09;;;;;;;5.18;2.45;;;8.30;99.90;;;;;;5011137;28;20046;-76
2023/11/06 01:29:35;;;;;;;1.88;1.70;;;8.30;99.90;;;;;;5011013;28;20052;-81
2023/11/06 01:32:01;;;;;;;2.53;1.42;;;8.30;99.90;;;;;;5037880;28;20077;-76
2023/11/06 01:34:27;;;;;;;1.65;1.50;;;8.40;99.90;;;;;;5075868;28;20517;-76
2023/11/06 01:36:53;;;;;;;2.22;1.55;;;8.40;99.90;;;;;;5078619;28;20026;-81
2023/11/06 01:39:18;;;;;;;1.10;1.00;;;8.40;99.90;;;;;;5010656;28;20471;-81
2023/11/06 01:41:46;;;;;;;1.98;0.93;;;8.50;99.90;;;;;;5010496;28;20041;-76
2023/11/06 01:44:12;;;;;;;1.27;1.17;;;8.50;99.90;;;;;;5075427;28;20026;-76
2023/11/06 01:46:38;;;;;;;1.08;0.98;;;8.50;99.90;;;;;;5078235;28;20021;-80
2023/11/06 01:49:05;;;;;;;0.80;0.80;;;8.50;99.90;;;;;;5010801;28;20026;-76
2023/11/06 01:51:32;;;;;;;2.05;0.77;;;8.60;99.90;;;;;;5078136;28;20032;-77
2023/11/06 01:53:59;;;;;;;1.63;1.00;;;8.60;99.90;;;;;;5010560;28;20033;-81
2023/11/06 01:56:26;;;;;;;0.75;0.75;;;8.70;99.90;;;;;;5077996;28;20452;-76
2023/11/06 01:58:53;;;;;;;1.13;1.02;;;8.70;99.90;;;;;;5078119;28;20033;-79
2023/11/06 02:01:19;;;;;;;0.82;0.75;;;8.80;99.90;;;;;;5009338;28;20153;-75
2023/11/06 02:03:45;;;;;;;1.63;1.08;;;8.80;99.90;;;;;;5073846;28;20033;-80
2023/11/06 02:06:11;;;;;;;1.73;1.00;;;8.80;99.90;;;;;;5002750;28;20093;-81
2023/11/06 02:08:37;;;;;;;1.40;1.00;;;8.70;99.90;;;;;;5008426;28;20030;-76
2023/11/06 02:11:04;;;;;;;3.53;1.40;;;8.60;99.90;;;;;;5002607;28;20028;-76
2023/11/06 02:13:30;;;;;;;3.40;1.80;;;8.60;99.90;;;;;;5077914;28;20075;-75
2023/11/06 02:15:56;;;;;;;3.15;1.88;;;8.50;99.90;;;;;;5078016;28;20026;-80
2023/11/06 02:18:21;;;;;;;5.45;2.33;;;8.40;99.90;;;;;;5077796;28;20101;-81
2023/11/06 02:20:50;;;;;;;3.95;2.20;;;8.40;99.90;;;;;;5010259;28;20104;-81
2023/11/06 02:23:16;;;;;;;7.30;4.63;;;8.30;99.90;;;;;;5006320;28;20381;-76
2023/11/06 02:25:41;;;;;;;9.45;4.60;;;8.30;99.90;;;;;;5010075;28;20022;-76
2023/11/06 02:28:08;;;;;;;9.88;4.55;;;8.20;99.90;;;;;;5076699;28;20174;-77
2023/11/06 02:30:38;;;;;;;9.15;5.85;;;8.20;99.90;;;;;;5009738;28;20029;-77
2023/11/06 02:33:04;;;;;;;7.97;5.38;;;8.10;99.90;;;;;;5076846;28;20053;-81
2023/11/06 02:35:29;;;;;;;9.95;5.60;;;8.10;99.90;;;;;;5010212;28;20532;-81
2023/11/06 02:37:55;;;;;;;10.82;5.85;;;8.10;99.90;;;;;;5077534;28;20045;-76
2023/11/06 02:40:21;;;;;;;10.75;5.05;;;8.00;99.90;;;;;;5077648;28;20014;-76
2023/11/06 02:42:47;;;;;;;7.88;4.25;;;8.00;99.90;;;;;;5077388;28;20479;-81
2023/11/06 02:45:12;;;;;;;4.75;3.17;;;7.90;99.90;;;;;;5077795;28;20018;-81
2023/11/06 02:47:38;;;;;;;6.07;2.25;;;7.90;99.90;;;;;;5009595;28;20018;-81
2023/11/06 02:50:05;;;;;;;3.60;1.80;;;7.90;99.90;;;;;;5077463;28;20033;-76
2023/11/06 02:52:32;;;;;;;2.72;1.67;;;7.90;99.90;;;;;;5077071;28;20049;-81
2023/11/06 02:54:57;;;;;;;2.50;1.70;;;7.90;99.90;;;;;;5002206;28;20479;-76
2023/11/06 02:57:23;;;;;;;1.38;1.13;;;7.90;99.90;;;;;;5009977;28;20037;-77
2023/11/06 02:59:49;;;;;;;1.45;1.35;;;8.00;99.90;;;;;;5067404;28;20523;-81
2023/11/06 03:02:14;;;;;;;1.33;1.20;;;8.00;99.90;;;;;;5001266;28;20061;-76
2023/11/06 03:04:40;;;;;;;2.00;1.08;;;8.00;99.90;;;;;;5009624;28;20030;-80
2023/11/06 03:07:06;;;;;;;1.10;1.00;;;8.00;99.90;;;;;;5077715;28;20383;-80
2023/11/06 03:09:32;;;;;;;0.90;0.90;;;8.00;99.90;;;;;;4998542;28;20079;-76
2023/11/06 03:11:58;;;;;;;0.75;0.73;;;8.00;99.90;;;;;;5009472;28;20038;-80
2023/11/06 03:14:23;;;;;;;3.22;0.90;;;8.10;99.90;;;;;;5080449;28;20023;-76
2023/11/06 03:16:49;;;;;;;1.17;1.10;;;8.10;99.90;;;;;;5081017;28;20137;-82
2023/11/06 03:19:14;;;;;;;0.82;0.82;;;8.10;99.90;;;;;;5012850;28;20033;-77
2023/11/06 03:21:40;;;;;;;1.35;1.15;;;8.10;99.90;;;;;;5081005;28;20037;-76
2023/11/06 03:24:07;;;;;;;1.70;0.88;;;8.20;99.90;;;;;;5080934;28;20021;-77
2023/11/06 03:26:34;;;;;;;1.27;0.90;;;8.20;99.90;;;;;;5077611;28;20022;-76
2023/11/06 03:29:00;;;;;;;1.60;1.00;;;8.20;99.90;;;;;;5075473;28;20118;-77
2023/11/06 03:31:25;;;;;;;1.13;1.00;;;8.20;99.90;;;;;;5078046;28;20026;-82
2023/11/06 03:33:51;;;;;;;1.35;0.98;;;8.20;99.90;;;;;;5080997;28;20026;-82
2023/11/06 03:36:17;;;;;;;1.88;1.00;;;8.30;99.90;;;;;;5012503;28;20057;-77
2023/11/06 03:38:42;;;;;;;1.88;1.10;;;8.30;99.90;;;;;;5013282;28;20071;-77
2023/11/06 03:41:08;;;;;;;1.92;1.10;;;8.30;99.90;;;;;;5080810;28;20520;-81
2023/11/06 03:43:34;;;;;;;2.40;1.10;;;8.30;99.90;;;;;;5012636;28;20049;-81
2023/11/06 03:45:59;;;;;;;0.65;0.65;;;8.30;99.90;;;;;;5080605;28;20497;-77
2023/11/06 03:48:25;;;;;;;1.20;1.00;;;8.30;99.90;;;;;;5080692;28;20014;-81
2023/11/06 03:50:51;;;;;;;0.77;0.77;;;8.30;99.90;;;;;;5012393;28;20097;-81
2023/11/06 03:53:16;;;;;;;2.70;1.20;;;8.40;99.90;;;;;;5012564;28;20475;-76
2023/11/06 03:55:42;;;;;;;2.47;1.23;;;8.50;99.90;;;;;;5080414;28;20025;-76
2023/11/06 03:58:08;;;;;;;2.85;1.10;;;8.40;99.90;;;;;;5073439;28;20474;-81
2023/11/06 04:00:34;;;;;;;1.30;1.00;;;8.50;99.90;;;;;;5006416;28;20022;-77
2023/11/06 04:02:59;;;;;;;1.90;1.20;;;8.50;99.90;;;;;;5011907;28;20057;-77
2023/11/06 04:05:25;;;;;;;2.03;1.00;;;8.50;99.90;;;;;;5080384;28;20030;-77
2023/11/06 04:07:52;;;;;;;1.58;1.05;;;8.50;99.90;;;;;;5011835;28;20123;-77
2023/11/06 04:10:17;;;;;;;2.20;1.35;;;8.40;99.90;;;;;;5080253;28;20124;-77
2023/11/06 04:12:43;;;;;;;2.25;1.00;;;8.50;99.90;;;;;;5011945;28;20105;-81
2023/11/06 04:15:09;;;;;;;1.48;1.08;;;8.50;99.90;;;;;;5012296;28;20033;-76
2023/11/06 04:17:35;;;;;;;3.33;1.20;;;8.50;99.90;;;;;;5012134;28;20057;-81
2023/11/06 04:20:01;;;;;;;0.90;0.80;;;8.50;99.90;;;;;;5080178;28;20497;-81
2023/11/06 04:22:26;;;;;;;1.35;0.80;;;8.50;99.90;;;;;;5012234;28;20084;-76
2023/11/06 04:24:52;;;;;;;1.45;1.00;;;8.50;99.90;;;;;;5079099;28;20026;-81
2023/11/06 04:27:18;;;;;;;1.38;0.90;;;8.50;99.90;;;;;;5012047;28;20050;-77
2023/11/06 04:29:43;;;;;;;0.90;0.90;;;8.50;99.90;;;;;;5079845;28;20033;-81
2023/11/06 04:32:10;;;;;;;1.98;1.00;;;8.50;99.90;;;;;;4999279;28;20111;-81
2023/11/06 04:34:36;;;;;;;1.40;0.90;;;8.50;99.90;;;;;;5011821;28;20425;-77
2023/11/06 04:37:01;;;;;;;1.40;1.08;;;8.50;99.90;;;;;;5011846;28;20033;-82
2023/11/06 04:39:27;;;;;;;2.60;0.98;;;8.40;99.90;;;;;;5011795;28;20386;-77
2023/11/06 04:41:53;;;;;;;0.80;0.80;;;8.40;99.90;;;;;;5011632;28;20522;-81
2023/11/06 04:44:18;;;;;;;1.23;0.90;;;8.40;99.90;;;;;;5011848;28;20095;-82
2023/11/06 04:46:44;;;;;;;2.17;1.00;;;8.30;99.90;;;;;;5079459;28;20375;-81
2023/11/06 04:49:11;;;;;;;1.80;1.05;;;8.30;99.90;;;;;;5008783;28;20026;-81
2023/11/06 04:51:36;;;;;;;0.80;0.80;;;8.20;99.90;;;;;;5078962;28;20022;-77
2023/11/06 04:54:02;;;;;;;1.05;0.80;;;8.30;99.90;;;;;;5079448;28;20080;-81
2023/11/06 04:56:28;;;;;;;0.90;0.90;;;8.20;99.90;;;;;;5011520;28;20023;-81
2023/11/06 04:58:53;;;;;;;2.40;0.88;;;8.20;99.90;;;;;;5079451;28;20029;-81
2023/11/06 05:01:19;;;;;;;1.90;0.95;;;8.10;99.90;;;;;;5011322;28;20026;-81
2023/11/06 05:03:44;;;;;;;0.80;0.80;;;8.10;99.90;;;;;;5011397;28;20501;-81
2023/11/06 05:06:10;;;;;;;2.90;1.02;;;8.00;99.90;;;;;;4997998;28;20026;-76
2023/11/06 05:08:36;;;;;;;1.48;1.10;;;7.90;99.90;;;;;;5079426;28;20026;-81
2023/11/06 05:11:02;;;;;;;1.48;1.20;;;7.80;99.90;;;;;;5079056;28;20487;-81
2023/11/06 05:13:28;;;;;;;3.35;1.20;;;7.80;99.90;;;;;;5011291;28;20106;-76
2023/11/06 05:15:53;;;;;;;1.13;0.90;;;7.70;99.90;;;;;;5011060;28;20022;-76
2023/11/06 05:18:19;;;;;;;1.85;1.10;;;7.60;99.90;;;;;;5079048;28;20034;-80
2023/11/06 05:20:45;;;;;;;1.30;1.20;;;7.60;99.90;;;;;;5078571;28;20018;-77
2023/11/06 05:23:11;;;;;;;1.90;1.38;;;7.60;99.90;;;;;;5065505;28;20034;-81
2023/11/06 05:25:37;;;;;;;3.97;1.52;;;7.60;99.90;;;;;;5010802;28;20476;-76
2023/11/06 05:28:04;;;;;;;2.65;1.35;;;7.50;99.90;;;;;;5011257;28;20058;-81
2023/11/06 05:30:30;;;;;;;2.20;1.30;;;7.50;99.90;;;;;;5078572;28;20088;-76
2023/11/06 05:32:57;;;;;;;2.20;1.20;;;7.40;99.90;;;;;;5078918;28;20030;-81
2023/11/06 05:35:23;;;;;;;2.95;1.30;;;7.40;99.90;;;;;;5078030;28;20155;-81
2023/11/06 05:37:50;;;;;;;1.02;1.00;;;7.40;99.90;;;;;;5010987;28;20026;-81
2023/11/06 05:40:16;;;;;;;2.35;1.20;;;7.40;99.90;;;;;;5011068;28;20388;-80
2023/11/06 05:42:42;;;;;;;2.35;1.55;;;7.40;99.90;;;;;;5078582;28;20086;-76
2023/11/06 05:45:09;;;;;;;3.78;1.50;;;7.40;99.90;;;;;;5078333;28;20018;-76
2023/11/06 05:47:35;;;;;;;2.88;1.35;;;7.40;99.90;;;;;;5078383;28;20018;-82
2023/11/06 05:50:01;;;;;;;1.33;1.10;;;7.30;99.90;;;;;;5010656;28;20158;-82
2023/11/06 05:52:26;;;;;;;1.83;1.58;;;7.30;99.90;;;;;;4999123;28;20048;-80
2023/11/06 05:54:52;;;;;;;3.30;1.52;;;7.30;99.90;;;;;;5076316;28;20124;-76
2023/11/06 05:57:18;;;;;;;2.38;1.70;;;7.30;99.90;;;;;;5075280;28;20026;-76
2023/11/06 05:59:44;;;;;;;2.22;1.40;;;7.20;99.90;;;;;;5077904;28;20129;-76
2023/11/06 06:02:10;;;;;;;2.03;1.83;;;7.20;99.90;;;;;;5077982;28;20424;-76
2023/11/06 06:04:44;;;;;;;3.08;1.77;;;7.10;99.90;;;;;;5004626;28;21241;-76
2023/11/06 06:07:09;;;;;;;2.78;1.63;;;7.10;99.90;;;;;;5071706;28;20056;-75
2023/11/06 06:09:37;;;;;;;6.22;2.10;;;7.10;99.90;;;;;;5009717;28;20018;-78
2023/11/06 06:12:03;;;;;;;2.83;2.00;;;7.10;99.90;;;;;;5077168;28;20041;-77
2023/11/06 06:14:35;;;;;;;3.70;1.83;;;7.10;99.90;;;;;;5009491;28;20022;-77
2023/11/06 06:17:05;;;;;;;3.50;1.75;;;7.10;99.90;;;;;;5075472;28;20044;-78
2023/11/06 06:19:31;;;;;;;1.85;1.33;;;7.10;99.90;;;;;;5076863;28;20109;-77
2023/11/06 06:21:57;;;;;;;2.22;1.75;;;7.20;99.90;;;;;;5003227;28;20133;-76
2023/11/06 06:24:23;;;;;;;3.72;1.88;;;7.20;99.90;;;;;;5000219;28;20023;-76
2023/11/06 06:26:48;;;;;;;4.60;1.77;;;7.20;99.90;;;;;;4999929;28;20042;-76
2023/11/06 06:29:14;;;;;;;2.30;2.08;;;7.20;99.90;;;;;;4998629;28;20128;-76
2023/11/06 06:31:40;;;;;;;1.90;1.50;;;7.30;99.90;;;;;;5068163;28;20045;-76
2023/11/06 06:34:06;;;;;;;2.67;1.48;;;7.40;99.90;;;;;;5070235;28;20105;-76
2023/11/06 06:36:31;;;;;;;6.30;1.80;;;7.40;99.90;;;;;;5075122;28;20076;-76
2023/11/06 06:38:58;;;;;;;4.68;3.42;;;7.50;99.90;;;;;;5086907;28;20479;-76
2023/11/06 06:41:24;;;;;;;3.13;2.10;;;7.50;99.90;;;;;;5065456;28;20057;-76
2023/11/06 06:43:49;;;;;;;3.95;1.58;;;7.60;99.90;;;;;;5064199;28;20050;-82
2023/11/06 06:46:15;;;;;;;3.40;1.63;;;7.70;99.90;;;;;;5007911;28;20029;-82
2023/11/06 06:48:41;;;;;;;3.65;2.08;;;7.70;99.90;;;;;;5007432;28;20026;-81
2023/11/06 06:51:07;;;;;;;2.88;2.33;;;7.80;99.90;;;;;;5074591;28;20109;-82
2023/11/06 06:53:34;;;;;;;2.03;1.48;;;7.90;99.90;;;;;;5011273;28;20363;-82
2023/11/06 06:56:00;;;;;;;2.45;1.52;;;7.90;99.90;;;;;;5005029;28;20151;-81
2023/11/06 06:58:26;;;;;;;3.00;1.83;;;8.00;99.90;;;;;;5004128;28;20022;-76
2023/11/06 07:00:53;;;;;;;3.42;1.65;;;8.00;99.90;;;;;;5007569;28;20086;-76
2023/11/06 07:03:19;;;;;;;4.07;2.03;;;8.10;99.90;;;;;;5073017;28;20030;-77
2023/11/06 07:05:44;;;;;;;4.68;1.95;;;8.20;99.90;;;;;;5020542;28;20015;-76
2023/11/06 07:08:10;;;;;;;4.45;2.10;;;8.20;99.90;;;;;;5075862;28;20424;-81
2023/11/06 07:10:36;;;;;;;2.58;1.63;;;8.40;99.90;;;;;;5075655;28;20018;-82
2023/11/06 07:13:03;;;;;;;3.70;1.83;;;8.40;99.90;;;;;;5008675;28;20033;-76
2023/11/06 07:15:29;;;;;;;2.00;1.45;;;8.40;99.90;;;;;;5077339;28;20018;-76
2023/11/06 07:17:58;;;;;;;2.80;1.42;;;8.40;99.90;;;;;;5077553;28;20028;-82
2023/11/06 07:20:24;;;;;;;4.53;1.33;;;8.40;99.90;;;;;;5069744;28;20651;-81
2023/11/06 07:22:50;;;;;;;2.22;1.27;;;8.50;99.90;;;;;;5007237;28;20029;-76
2023/11/06 07:25:16;;;;;;;3.28;1.50;;;8.50;99.90;;;;;;5007216;28;20022;-76
2023/11/06 07:27:43;;;;;;;2.00;1.23;;;8.50;99.90;;;;;;5007623;28;20128;-76
2023/11/06 07:30:10;;;;;;;1.55;1.30;;;8.60;99.90;;;;;;5070936;28;20068;-82
2023/11/06 07:32:36;;;;;;;2.20;1.38;;;8.60;99.90;;;;;;5007544;28;20038;-82
2023/11/06 07:35:02;;;;;;;3.20;1.50;;;8.60;99.90;;;;;;5075065;28;20536;-76
2023/11/06 07:37:29;;;;;;;3.08;1.40;;;8.70;99.90;;;;;;5076816;28;20030;-76
2023/11/06 07:39:55;;;;;;;2.65;1.42;;;8.70;99.90;;;;;;5009444;28;20028;-76
2023/11/06 07:42:21;;;;;;;2.08;1.08;;;8.70;99.90;;;;;;5009282;28;20022;-76
2023/11/06 07:44:47;;;;;;;7.07;1.35;;;8.80;99.90;;;;;;5009232;28;20033;-76
2023/11/06 07:47:13;;;;;;;3.13;1.98;;;8.80;99.90;;;;;;5077154;28;20394;-81
2023/11/06 07:49:39;;;;;;;3.67;1.27;;;8.80;99.90;;;;;;5009107;28;20486;-76
2023/11/06 07:52:10;;;;;;;2.30;1.40;;;8.80;99.90;;;;;;5009224;28;20113;-81
2023/11/06 07:54:41;;;;;;;2.25;1.20;;;8.90;99.90;;;;;;5076849;28;20152;-76
2023/11/06 07:57:09;;;;;;;2.50;1.37;;;8.90;99.90;;;;;;5009011;28;20030;-81
2023/11/06 07:59:40;;;;;;;2.88;1.55;;;9.00;99.90;;;;;;5008843;28;20268;-76
2023/11/06 08:02:10;;;;;;;2.75;1.23;;;9.10;99.90;;;;;;5075003;28;20048;-76
2023/11/06 08:04:39;;;;;;;1.17;1.00;;;9.10;99.90;;;;;;5079621;28;20053;-81
2023/11/06 08:07:05;;;;;;;3.13;1.58;;;9.20;99.90;;;;;;5012047;28;20384;-76
2023/11/06 08:09:30;;;;;;;1.20;0.82;;;9.30;99.90;;;;;;5010350;28;20033;-76
2023/11/06 08:11:56;;;;;;;3.38;1.40;;;9.30;99.90;;;;;;5012141;28;20045;-82
2023/11/06 08:14:22;;;;;;;3.03;1.00;;;9.40;99.90;;;;;;5080109;28;20029;-77
2023/11/06 08:16:47;;;;;;;1.88;1.10;;;9.40;99.90;;;;;;5081993;28;20475;-76
2023/11/06 08:19:13;;;;;;;2.10;1.10;;;9.50;99.90;;;;;;5080123;28;20018;-81
2023/11/06 08:21:39;;;;;;;1.23;1.15;;;9.40;99.90;;;;;;5012088;28;20037;-76
2023/11/06 08:24:05;;;;;;;1.95;1.30;;;9.40;99.90;;;;;;5011952;28;20029;-76
2023/11/06 08:26:31;;;;;;;2.03;1.20;;;9.50;99.90;;;;;;5074771;28;20031;-82
2023/11/06 08:28:56;;;;;;;3.67;1.10;;;9.60;99.90;;;;;;5007576;28;20042;-76
2023/11/06 08:31:22;;;;;;;1.83;1.10;;;9.60;99.90;;;;;;5073060;28;20080;-81
2023/11/06 08:33:48;;;;;;;3.80;1.52;;;9.70;99.90;;;;;;5079624;28;20426;-82
2023/11/06 08:36:13;;;;;;;2.55;1.60;;;9.70;99.90;;;;;;5012040;28;20093;-81
2023/11/06 08:38:39;;;;;;;1.40;1.08;;;9.70;99.90;;;;;;5011610;28;20037;-82
2023/11/06 08:41:09;;;;;;;3.05;1.42;;;9.60;99.90;;;;;;5079728;28;20056;-82
2023/11/06 08:43:35;;;;;;;4.68;1.25;;;9.60;99.90;;;;;;5078571;28;20069;-82
2023/11/06 08:46:02;;;;;;;6.32;1.50;;;9.60;99.90;;;;;;5011627;28;20079;-76
2023/11/06 08:48:28;;;;;;;3.75;1.55;;;9.60;99.90;;;;;;5079569;28;20057;-82
2023/11/06 08:50:54;;;;;;;4.68;1.42;;;9.50;99.90;;;;;;5011523;28;20094;-81
2023/11/06 08:53:19;;;;;;;2.80;1.23;;;9.50;99.90;;;;;;5011074;28;20042;-76
2023/11/06 08:55:47;;;;;;;1.33;1.23;;;9.60;99.90;;;;;;5079163;28;20029;-82
2023/11/06 08:58:16;;;;;;;2.00;1.20;;;9.60;99.90;;;;;;5011354;28;20022;-76
2023/11/06 09:00:45;;;;;;;2.53;1.10;;;9.70;99.90;;;;;;5011359;28;20033;-82
2023/11/06 09:03:12;;;;;;;4.32;1.83;;;9.70;99.90;;;;;;4999716;28;20026;-76
2023/11/06 09:05:39;;;;;;;5.13;1.73;;;9.80;99.90;;;;;;5010781;28;20026;-76
2023/11/06 09:08:04;;;;;;;1.83;1.30;;;10.10;99.90;;;;;;5011595;28;20466;-81
2023/11/06 09:10:30;;;;;;;5.00;1.67;;;10.20;99.90;;;;;;5078552;28;20022;-76
2023/11/06 09:12:58;;;;;;;10.15;1.85;;;10.20;99.90;;;;;;5011397;28;20437;-82
2023/11/06 09:15:23;;;;;;;2.13;1.30;;;10.20;99.90;;;;;;5078753;28;20022;-76
2023/11/06 09:17:49;;;;;;;2.58;1.23;;;10.20;99.90;;;;;;5079073;28;20087;-76
2023/11/06 09:20:14;;;;;;;2.13;1.27;;;10.40;99.90;;;;;;5011277;28;20049;-82
2023/11/06 09:22:43;;;;;;;5.00;1.38;;;10.60;99.90;;;;;;5075838;28;20048;-82
2023/11/06 09:25:08;;;;;;;3.13;1.95;;;10.90;97.70;;;;;;5006723;28;20064;-76
2023/11/06 09:27:38;;;;;;;5.13;1.45;;;11.00;95.30;;;;;;5078876;28;20132;-76
2023/11/06 09:30:07;;;;;;;6.32;1.30;;;11.20;95.90;;;;;;5011038;28;20039;-76
2023/11/06 09:32:32;;;;;;;3.33;1.40;;;11.30;95.00;;;;;;5075690;28;20062;-82
2023/11/06 09:35:00;;;;;;;2.78;1.10;;;11.30;91.00;;;;;;5007535;28;20073;-82
2023/11/06 09:37:26;;;;;;;3.63;1.20;;;11.10;88.80;;;;;;5078823;28;20483;-80
2023/11/06 09:39:52;;;;;;;3.65;1.40;;;11.10;89.40;;;;;;5078452;28;20026;-79
2023/11/06 09:42:17;;;;;;;1.48;0.98;;;11.00;88.50;;;;;;5078627;28;20129;-74
2023/11/06 09:44:46;;;;;;;3.40;1.13;;;11.00;89.40;;;;;;5078345;28;20026;-76
2023/11/06 09:47:12;;;;;;;1.75;1.20;;;11.00;91.90;;;;;;5010826;28;20360;-80
2023/11/06 09:49:43;;;;;;;2.78;1.40;;;11.00;91.20;;;;;;5010683;28;20037;-75
2023/11/06 09:52:09;;;;;;;3.17;1.35;;;11.20;92.50;;;;;;5010844;28;20033;-74
2023/11/06 09:54:36;;;;;;;3.55;1.30;;;11.20;92.40;;;;;;5010569;28;20101;-75
2023/11/06 09:57:04;;;;;;;3.22;1.55;;;11.20;88.70;;;;;;5012279;28;20026;-75
2023/11/06 09:59:30;;;;;;;2.50;1.33;;;11.30;87.20;;;;;;5074948;28;20109;-80
2023/11/06 10:01:55;;;;;;;4.38;1.52;;;11.40;87.20;;;;;;5070396;28;20543;-75
2023/11/06 10:04:21;;;;;;;4.78;1.75;;;11.40;84.20;;;;;;5078100;28;20041;-80
2023/11/06 10:06:51;;;;;;;2.65;1.50;;;11.40;86.60;;;;;;5010473;28;20109;-76
2023/11/06 10:09:21;;;;;;;3.08;1.23;;;11.50;85.20;;;;;;5077953;28;20048;-81
2023/11/06 10:11:47;;;;;;;4.40;1.58;;;11.60;83.70;;;;;;5040378;28;20034;-81
2023/11/06 10:14:13;;;;;;;2.08;1.20;;;11.70;85.40;;;;;;5009495;28;20018;-76
2023/11/06 10:16:39;;;;;;;2.03;1.05;;;11.70;84.60;;;;;;5077914;28;20041;-76
2023/11/06 10:19:24;;;;;;;3.03;1.30;;;11.70;82.30;;;;;;5077772;28;20014;-76
2023/11/06 10:21:50;;;;;;;3.67;1.27;;;11.80;81.20;;;;;;5077310;28;20029;-81
2023/11/06 10:24:16;;;;;;;3.22;1.20;;;11.80;82.70;;;;;;5077575;28;20022;-81
2023/11/06 10:26:42;;;;;;;5.20;1.50;;;11.80;82.90;;;;;;5019165;28;20136;-81
2023/11/06 10:29:15;;;;;;;1.83;1.10;;;11.80;80.50;;;;;;5010350;28;20380;-81
2023/11/06 10:31:44;;;;;;;3.25;1.50;;;11.70;77.30;;;;;;5009863;28;20044;-81
2023/11/06 10:34:26;;;;;;;1.75;1.17;;;11.70;77.10;;;;;;5077720;28;20096;-76
2023/11/06 10:37:00;;;;;;;3.05;1.05;;;11.80;78.40;;;;;;5079574;28;20600;-81
2023/11/06 10:39:27;;;;;;;1.20;1.10;;;11.80;75.60;;;;;;5077751;28;20034;-76
2023/11/06 10:42:04;;;;;;;1.90;0.95;;;11.80;76.10;;;;;;5009984;28;20022;-81
2023/11/06 10:44:34;;;;;;;3.88;1.27;;;11.80;76.70;;;;;;5009884;28;20026;-81
2023/11/06 10:47:07;;;;;;;4.30;1.25;;;11.90;76.60;;;;;;5010074;28;20022;-82
2023/11/06 10:49:35;;;;;;;5.72;1.50;;;12.00;78.50;;;;;;5009992;28;20022;-82
2023/11/06 10:52:04;;;;;;;3.78;1.45;;;12.10;76.70;;;;;;5077318;28;20022;-82
2023/11/06 10:54:30;;;;;;;3.78;1.02;;;12.20;76.20;;;;;;5009930;28;20063;-82
2023/11/06 10:56:57;;;;;;;3.35;1.00;;;12.20;75.30;;;;;;5010002;28;20429;-82
2023/11/06 10:59:25;;;;;;;2.42;1.15;;;12.30;74.80;;;;;;5009643;28;20044;-82
2023/11/06 11:01:58;;;;;;;3.05;0.90;;;12.20;74.10;;;;;;5009885;28;20026;-82
2023/11/06 11:04:26;;;;;;;6.82;1.02;;;12.20;73.80;;;;;;5077270;28;20505;-77
2023/11/06 11:06:52;;;;;;;1.58;0.93;;;12.10;73.90;;;;;;5074285;28;20023;-82
2023/11/06 11:09:18;;;;;;;2.25;1.10;;;12.10;74.30;;;;;;5075698;28;20038;-76
2023/11/06 11:11:44;;;;;;;4.13;1.38;;;12.20;75.30;;;;;;5077236;28;20489;-76
2023/11/06 11:14:14;;;;;;;1.70;1.30;;;12.30;76.10;;;;;;5077186;28;20105;-76
2023/11/06 11:16:52;;;;;;;2.75;1.00;;;12.40;76.40;;;;;;5076650;28;20018;-76
2023/11/06 11:19:24;;;;;;;2.67;1.63;;;12.50;75.60;;;;;;5069307;28;20034;-76
2023/11/06 11:22:00;;;;;;;2.53;1.02;;;12.50;75.00;;;;;;5070874;28;20014;-82
2023/11/06 11:24:41;;;;;;;3.55;1.20;;;12.50;75.20;;;;;;5068618;28;20099;-82
2023/11/06 11:27:07;;;;;;;4.10;1.20;;;12.20;74.00;;;;;;5006364;28;20457;-81
2023/11/06 11:29:56;;;;;;;2.38;0.95;;;12.00;75.10;;;;;;5008156;28;20041;-82
2023/11/06 11:32:52;;;;;;;2.83;1.23;;;12.00;75.80;;;;;;5063532;28;20038;-82
2023/11/06 11:35:26;;;;;;;1.88;1.50;;;12.10;76.10;;;;;;5008465;28;20018;-82
2023/11/06 11:37:58;;;;;;;3.22;1.67;;;12.10;78.10;;;;;;5079838;28;20026;-82
2023/11/06 11:40:44;;;;;;;2.85;1.38;;;12.10;77.80;;;;;;5076484;28;20021;-82
2023/11/06 11:43:28;;;;;;;2.63;1.27;;;12.20;77.00;;;;;;5059858;28;20121;-82
2023/11/06 11:45:54;;;;;;;2.45;1.25;;;12.10;76.50;;;;;;4994538;28;20035;-83
2023/11/06 11:48:20;;;;;;;2.33;1.10;;;12.00;76.60;;;;;;5008479;28;20549;-82
2023/11/06 11:50:46;;;;;;;4.30;1.48;;;11.90;78.10;;;;;;5005192;28;20105;-83
2023/11/06 11:53:32;;;;;;;2.92;1.42;;;11.80;80.20;;;;;;5077849;28;20055;-83
2023/11/06 11:55:58;;;;;;;4.40;1.85;;;11.80;80.80;;;;;;5079863;28;20033;-84
2023/11/06 11:58:24;;;;;;;5.20;4.63;;;11.90;82.20;;;;;;5073415;28;20083;-83
2023/11/06 12:00:54;;;;;;;3.70;2.78;;;12.00;81.10;;;;;;5078564;28;20018;-83
2023/11/06 12:03:24;;;;;;;3.22;1.38;;;12.00;81.80;;;;;;5001255;28;20079;-84
2023/11/06 12:05:58;;;;;;;3.65;2.00;;;11.90;78.70;;;;;;5006968;28;20033;-83
2023/11/06 12:08:26;;;;;;;3.63;1.60;;;11.90;77.60;;;;;;4994407;28;20052;-83
2023/11/06 12:10:53;;;;;;;2.33;2.13;;;11.90;77.60;;;;;;5000129;28;20029;-84
2023/11/06 12:13:25;;;;;;;3.67;1.92;;;11.90;77.90;;;;;;5070137;28;20047;-83
2023/11/06 12:15:52;;;;;;;3.90;1.30;;;12.00;78.20;;;;;;5069783;28;20026;-83
2023/11/06 12:18:23;;;;;;;3.45;1.80;;;11.90;77.50;;;;;;4992717;28;20041;-83
2023/11/06 12:20:57;;;;;;;2.30;1.20;;;11.90;76.40;;;;;;5077566;28;20058;-84
2023/11/06 12:23:31;;;;;;;2.15;1.17;;;11.90;76.00;;;;;;5010360;28;20033;-83
2023/11/06 12:26:05;;;;;;;1.98;1.10;;;11.80;75.50;;;;;;5077859;28;20383;-83
2023/11/06 12:28:32;;;;;;;2.58;1.65;;;11.80;74.70;;;;;;5074529;28;20512;-83
2023/11/06 12:30:57;;;;;;;2.72;1.42;;;11.90;75.60;;;;;;5074083;28;20054;-83
2023/11/06 12:33:23;;;;;;;7.18;1.80;;;11.90;75.60;;;;;;5086413;28;20102;-84
2023/11/06 12:35:53;;;;;;;2.25;1.38;;;12.00;76.10;;;;;;5000353;28;20034;-84
2023/11/06 12:38:37;;;;;;;6.88;3.05;;;12.00;75.40;;;;;;5073912;28;20502;-82
2023/11/06 12:41:04;;;;;;;3.22;0.90;;;12.20;74.60;;;;;;5004035;28;20022;-83
2023/11/06 12:43:34;;;;;;;3.10;1.13;;;12.30;72.70;;;;;;5076710;28;20471;-83
2023/11/06 12:46:01;;;;;;;6.38;2.50;;;12.30;72.10;;;;;;5011637;28;20158;-83
2023/11/06 12:48:29;;;;;;;4.50;1.65;;;12.30;72.30;;;;;;5086791;28;20021;-83
2023/11/06 12:51:04;;;;;;;2.65;1.08;;;12.30;72.80;;;;;;5078371;28;20088;-83
2023/11/06 12:53:34;;;;;;;2.75;1.30;;;12.40;72.20;;;;;;5081212;28;20034;-84